createdAt,value
2019-05-25T00:01:01.583Z,8.47
2019-05-25T00:03:31.572Z,8.97
2019-05-25T00:06:02.483Z,9.30
2019-05-25T00:08:32.512Z,9.67
2019-05-25T00:11:02.463Z,9.73
2019-05-25T00:13:32.546Z,9.57
2019-05-25T00:16:02.486Z,9.33
2019-05-25T00:18:32.354Z,9.63
2019-05-25T00:21:02.313Z,9.70
2019-05-25T00:23:33.892Z,10.20
2019-05-25T00:26:03.841Z,10.27
2019-05-25T00:28:33.780Z,9.57
2019-05-25T00:31:03.765Z,9.90
2019-05-25T00:33:33.697Z,10.37
2019-05-25T00:36:03.908Z,10.27
2019-05-25T00:38:33.924Z,9.73
2019-05-25T00:41:03.886Z,9.60
2019-05-25T00:43:33.807Z,10.17
2019-05-25T00:46:03.760Z,10.13
2019-05-25T00:48:33.729Z,9.57
2019-05-25T00:51:03.777Z,10.13
2019-05-25T00:53:33.716Z,9.63
2019-05-25T00:56:03.643Z,10.40
2019-05-25T00:58:34.581Z,9.53
2019-05-25T01:01:05.015Z,10.27
2019-05-25T01:03:35.067Z,10.03
2019-05-25T01:06:04.921Z,10.10
2019-05-25T01:08:34.843Z,9.93
2019-05-25T01:11:04.809Z,9.13
2019-05-25T01:13:34.809Z,10.90
2019-05-25T01:16:05.037Z,9.67
2019-05-25T01:18:35.984Z,11.23
2019-05-25T01:21:05.912Z,10.53
2019-05-25T01:23:35.869Z,10.97
2019-05-25T01:26:05.843Z,10.30
2019-05-25T01:28:37.800Z,10.57
2019-05-25T01:31:07.474Z,10.77
2019-05-25T01:33:37.409Z,11.37
2019-05-25T01:36:07.376Z,11.13
2019-05-25T01:38:37.594Z,11.43
2019-05-25T01:41:07.474Z,10.50
2019-05-25T01:43:37.431Z,11.40
2019-05-25T01:46:07.322Z,11.00
2019-05-25T01:48:37.180Z,11.97
2019-05-25T01:51:07.063Z,11.53
2019-05-25T01:53:37.984Z,10.97
2019-05-25T01:56:07.855Z,13.00
2019-05-25T01:58:37.814Z,12.77
2019-05-25T02:01:07.679Z,12.97
2019-05-25T02:03:37.778Z,13.10
2019-05-25T02:06:07.834Z,12.90
2019-05-25T02:08:37.728Z,12.83
2019-05-25T02:11:07.706Z,12.90
2019-05-25T02:13:37.621Z,13.40
2019-05-25T02:16:07.641Z,12.93
2019-05-25T02:18:37.578Z,12.70
2019-05-25T02:21:07.629Z,12.67
2019-05-25T02:23:37.540Z,12.47
2019-05-25T02:26:07.432Z,13.00
2019-05-25T02:28:37.407Z,13.00
2019-05-25T02:31:07.365Z,12.23
2019-05-25T02:33:37.295Z,12.70
2019-05-25T02:36:07.250Z,12.73
2019-05-25T02:38:37.188Z,13.47
2019-05-25T02:41:07.082Z,18.03
2019-05-25T02:43:37.069Z,21.00
2019-05-25T02:46:07.037Z,25.43
2019-05-25T02:48:36.904Z,23.50
2019-05-25T02:51:06.787Z,21.90
2019-05-25T02:53:36.658Z,23.23
2019-05-25T02:56:06.677Z,24.27
2019-05-25T02:58:36.634Z,23.03
2019-05-25T03:01:06.859Z,23.13
2019-05-25T03:03:36.984Z,22.37
2019-05-25T03:06:09.173Z,23.67
2019-05-25T03:08:39.952Z,24.37
2019-05-25T03:11:10.182Z,24.87
2019-05-25T03:13:40.218Z,23.57
2019-05-25T03:16:10.234Z,19.40
2019-05-25T03:18:40.191Z,18.67
2019-05-25T03:21:10.055Z,16.70
2019-05-25T03:23:40.017Z,14.33
2019-05-25T03:26:09.948Z,14.70
2019-05-25T03:28:39.900Z,15.10
2019-05-25T03:31:09.916Z,14.70
2019-05-25T03:33:39.886Z,14.70
2019-05-25T03:36:09.836Z,14.47
2019-05-25T03:38:39.707Z,14.10
2019-05-25T03:41:09.632Z,15.10
2019-05-25T03:43:39.617Z,13.90
2019-05-25T03:46:09.555Z,14.13
2019-05-25T03:48:39.414Z,13.67
2019-05-25T03:51:09.290Z,12.90
2019-05-25T03:53:40.209Z,14.57
2019-05-25T03:56:10.185Z,14.43
2019-05-25T03:58:40.052Z,15.03
2019-05-25T04:01:10.525Z,15.30
2019-05-25T04:03:40.542Z,14.00
2019-05-25T04:06:10.483Z,14.60
2019-05-25T04:08:40.342Z,13.83
2019-05-25T04:11:10.217Z,14.07
2019-05-25T04:13:40.172Z,13.40
2019-05-25T04:16:10.095Z,14.53
2019-05-25T04:18:40.055Z,13.70
2019-05-25T04:21:09.915Z,13.30
2019-05-25T04:23:53.324Z,13.30
2019-05-25T04:26:23.286Z,13.67
2019-05-25T04:28:53.240Z,14.50
2019-05-25T04:31:23.301Z,14.90
2019-05-25T04:33:53.197Z,15.40
2019-05-25T04:36:23.934Z,14.63
2019-05-25T04:38:53.987Z,13.63
2019-05-25T04:41:23.917Z,14.03
2019-05-25T04:43:53.800Z,13.37
2019-05-25T04:46:23.754Z,12.83
2019-05-25T04:48:53.709Z,13.67
2019-05-25T04:51:23.639Z,13.10
2019-05-25T04:53:53.561Z,13.27
2019-05-25T04:56:38.167Z,13.80
2019-05-25T04:58:55.105Z,12.57
2019-05-25T05:01:25.043Z,13.17
2019-05-25T05:03:56.619Z,12.90
2019-05-25T05:06:27.234Z,12.40
2019-05-25T05:08:57.754Z,12.97
2019-05-25T05:11:28.387Z,12.53
2019-05-25T05:13:59.018Z,11.90
2019-05-25T05:16:29.450Z,12.60
2019-05-25T05:19:00.105Z,11.70
2019-05-25T05:21:30.952Z,11.90
2019-05-25T05:24:01.928Z,12.13
2019-05-25T05:26:34.532Z,12.50
2019-05-25T05:29:07.271Z,13.40
2019-05-25T05:31:40.387Z,12.57
2019-05-25T05:34:13.894Z,12.80
2019-05-25T05:36:46.991Z,12.13
2019-05-25T05:39:19.793Z,12.37
2019-05-25T05:41:53.943Z,12.67
2019-05-25T05:44:29.757Z,12.07
2019-05-25T05:47:03.840Z,12.50
2019-05-25T05:49:37.514Z,12.93
2019-05-25T05:52:10.191Z,13.07
2019-05-25T05:54:44.647Z,12.67
2019-05-25T05:57:19.217Z,12.40
2019-05-25T05:59:53.284Z,12.70
2019-05-25T06:02:26.797Z,14.77
2019-05-25T06:05:01.004Z,17.80
2019-05-25T06:07:46.006Z,16.30
2019-05-25T06:10:20.547Z,51.13
2019-05-25T06:12:55.372Z,19.20
2019-05-25T06:15:31.792Z,14.77
2019-05-25T06:18:05.721Z,14.00
2019-05-25T06:20:39.734Z,13.07
2019-05-25T06:23:14.211Z,11.97
2019-05-25T06:25:53.503Z,12.37
2019-05-25T06:28:40.456Z,11.43
2019-05-25T06:31:27.060Z,12.10
2019-05-25T06:34:02.272Z,11.80
2019-05-25T06:36:46.999Z,12.87
2019-05-25T06:39:29.533Z,12.53
2019-05-25T06:42:17.082Z,11.77
2019-05-25T06:44:58.248Z,12.47
2019-05-25T06:47:39.929Z,11.87
2019-05-25T06:50:17.769Z,12.77
2019-05-25T06:53:03.900Z,10.97
2019-05-25T06:55:50.948Z,10.33
2019-05-25T06:58:33.944Z,10.23
2019-05-25T07:01:18.581Z,9.90
2019-05-25T07:03:53.802Z,9.40
2019-05-25T07:06:38.938Z,9.77
2019-05-25T07:09:23.900Z,11.07
2019-05-25T07:11:59.653Z,18.43
2019-05-25T07:14:36.531Z,10.40
2019-05-25T07:17:12.667Z,8.47
2019-05-25T07:19:46.295Z,7.63
2019-05-25T07:22:21.731Z,7.30
2019-05-25T07:24:55.525Z,7.93
2019-05-25T07:27:35.549Z,8.13
2019-05-25T07:30:17.514Z,7.90
2019-05-25T07:33:00.636Z,9.63
2019-05-25T07:35:38.097Z,9.63
2019-05-25T07:38:15.890Z,9.17
2019-05-25T07:40:51.227Z,8.53
2019-05-25T07:43:28.838Z,7.50
2019-05-25T07:46:05.458Z,7.37
2019-05-25T07:48:39.698Z,7.00
2019-05-25T07:51:13.403Z,7.20
2019-05-25T07:53:50.748Z,7.90
2019-05-25T07:56:37.031Z,7.50
2019-05-25T07:59:17.722Z,6.83
2019-05-25T08:01:58.478Z,6.23
2019-05-25T08:04:39.155Z,5.97
2019-05-25T08:07:22.964Z,7.50
2019-05-25T08:10:07.726Z,5.77
2019-05-25T08:12:51.295Z,7.07
2019-05-25T08:18:13.451Z,10.23
2019-05-25T08:20:55.277Z,8.80
2019-05-25T08:23:33.520Z,9.27
2019-05-25T08:26:14.354Z,9.60
2019-05-25T08:28:53.608Z,10.70
2019-05-25T08:31:33.685Z,8.83
2019-05-25T08:34:17.881Z,8.60
2019-05-25T08:36:53.810Z,8.20
2019-05-25T08:39:24.454Z,8.40
2019-05-25T08:41:54.540Z,7.80
2019-05-25T08:44:24.668Z,10.53
2019-05-25T08:46:55.439Z,11.53
2019-05-25T08:49:25.691Z,9.10
2019-05-25T08:51:55.662Z,8.97
2019-05-25T08:54:25.576Z,8.33
2019-05-25T08:56:55.732Z,8.53
2019-05-25T08:59:25.862Z,10.73
2019-05-25T09:01:55.827Z,10.97
2019-05-25T09:04:25.847Z,10.10
2019-05-25T09:06:55.833Z,8.13
2019-05-25T09:09:25.663Z,8.20
2019-05-25T09:11:55.616Z,8.00
2019-05-25T09:14:25.525Z,8.73
2019-05-25T09:16:56.077Z,8.90
2019-05-25T09:19:26.254Z,8.17
2019-05-25T09:22:02.378Z,9.83
2019-05-25T09:24:27.989Z,9.37
2019-05-25T09:26:57.946Z,10.47
2019-05-25T09:29:27.896Z,12.53
2019-05-25T09:31:57.759Z,9.23
2019-05-25T09:34:27.781Z,10.33
2019-05-25T09:36:57.735Z,8.27
2019-05-25T09:39:27.724Z,7.53
2019-05-25T09:41:57.662Z,6.43
2019-05-25T09:44:27.771Z,6.77
2019-05-25T09:46:57.778Z,6.43
2019-05-25T09:49:28.884Z,7.93
2019-05-25T09:51:58.851Z,6.67
2019-05-25T09:54:28.753Z,6.70
2019-05-25T09:56:58.627Z,6.33
2019-05-25T09:59:28.592Z,6.37
2019-05-25T10:01:58.490Z,5.70
2019-05-25T10:04:28.849Z,6.50
2019-05-25T10:06:58.777Z,6.30
2019-05-25T10:09:28.654Z,5.90
2019-05-25T10:11:58.584Z,5.60
2019-05-25T10:14:28.452Z,6.93
2019-05-25T10:16:58.383Z,5.87
2019-05-25T10:19:28.311Z,5.47
2019-05-25T10:21:59.565Z,6.70
2019-05-25T10:24:29.716Z,5.50
2019-05-25T10:26:59.568Z,6.73
2019-05-25T10:29:37.194Z,5.60
2019-05-25T10:32:01.149Z,6.03
2019-05-25T10:34:31.083Z,6.73
2019-05-25T10:37:00.944Z,6.40
2019-05-25T10:39:31.120Z,5.40
2019-05-25T10:42:01.105Z,6.03
2019-05-25T10:44:31.022Z,5.90
2019-05-25T10:47:01.961Z,6.03
2019-05-25T10:49:31.823Z,6.27
2019-05-25T10:52:01.751Z,6.03
2019-05-25T10:54:31.670Z,5.93
2019-05-25T10:57:01.520Z,6.67
2019-05-25T10:59:31.392Z,7.80
2019-05-25T11:02:01.320Z,7.53
2019-05-25T11:04:31.261Z,8.30
2019-05-25T11:07:01.172Z,6.57
2019-05-25T11:09:31.099Z,6.83
2019-05-25T11:12:01.062Z,5.60
2019-05-25T11:14:30.958Z,4.53
2019-05-25T11:17:00.867Z,4.40
2019-05-25T11:19:30.725Z,4.40
2019-05-25T11:22:00.662Z,3.73
2019-05-25T11:24:30.569Z,3.53
2019-05-25T11:27:00.428Z,5.63
2019-05-25T11:29:30.281Z,4.37
2019-05-25T11:32:04.309Z,3.90
2019-05-25T11:34:31.721Z,3.40
2019-05-25T11:37:01.653Z,3.80
2019-05-25T11:39:31.582Z,3.13
2019-05-25T11:42:01.437Z,3.03
2019-05-25T11:44:31.368Z,3.00
2019-05-25T11:47:01.276Z,2.90
2019-05-25T11:49:31.226Z,5.17
2019-05-25T11:52:01.147Z,3.80
2019-05-25T11:54:31.090Z,3.50
2019-05-25T11:57:01.011Z,4.10
2019-05-25T11:59:30.950Z,4.67
2019-05-25T12:02:00.818Z,3.60
2019-05-25T12:04:30.744Z,4.90
2019-05-25T12:07:00.711Z,3.47
2019-05-25T12:09:30.645Z,3.27
2019-05-25T12:12:00.593Z,3.90
2019-05-25T12:14:30.499Z,5.57
2019-05-25T12:17:00.369Z,3.33
2019-05-25T12:19:30.283Z,3.47
2019-05-25T12:22:00.159Z,4.00
2019-05-25T12:24:30.085Z,3.70
2019-05-25T12:27:00.112Z,3.47
2019-05-25T12:29:30.016Z,3.20
2019-05-25T12:32:04.129Z,3.17
2019-05-25T12:34:31.504Z,3.77
2019-05-25T12:37:01.456Z,3.22
2019-05-25T12:39:31.401Z,3.90
2019-05-25T12:42:01.389Z,3.45
2019-05-25T12:44:34.279Z,3.50
2019-05-25T12:47:02.887Z,3.42
2019-05-25T12:49:49.389Z,2.85
2019-05-25T12:52:05.797Z,3.47
2019-05-25T12:54:35.724Z,3.20
2019-05-25T12:57:05.595Z,3.27
2019-05-25T12:59:35.453Z,3.33
2019-05-25T13:02:05.695Z,4.43
2019-05-25T13:04:35.706Z,3.67
2019-05-25T13:07:05.610Z,3.50
2019-05-25T13:09:35.472Z,3.60
2019-05-25T13:12:05.466Z,3.10
2019-05-25T13:14:35.405Z,3.43
2019-05-25T13:17:06.383Z,3.53
2019-05-25T13:19:36.257Z,3.33
2019-05-25T13:22:06.112Z,3.30
2019-05-25T13:24:36.063Z,2.90
2019-05-25T13:27:06.040Z,3.10
2019-05-25T13:29:36.039Z,3.37
2019-05-25T13:32:05.896Z,3.10
2019-05-25T13:34:35.755Z,2.93
2019-05-25T13:37:05.764Z,3.10
2019-05-25T13:39:35.628Z,3.27
2019-05-25T13:42:05.565Z,3.43
2019-05-25T13:44:35.408Z,3.43
2019-05-25T13:47:05.420Z,3.57
2019-05-25T13:49:35.859Z,3.63
2019-05-25T13:52:05.807Z,3.30
2019-05-25T13:54:35.673Z,3.13
2019-05-25T13:57:06.693Z,3.10
2019-05-25T13:59:36.540Z,2.90
2019-05-25T14:02:06.471Z,3.17
2019-05-25T14:04:36.319Z,3.70
2019-05-25T14:07:07.411Z,3.10
2019-05-25T14:09:37.335Z,3.27
2019-05-25T14:12:07.260Z,3.47
2019-05-25T14:14:37.123Z,3.63
2019-05-25T14:17:07.187Z,4.23
2019-05-25T14:19:37.067Z,3.40
2019-05-25T14:22:06.984Z,3.73
2019-05-25T14:24:36.853Z,3.80
2019-05-25T14:27:06.717Z,3.80
2019-05-25T14:29:36.633Z,3.87
2019-05-25T14:32:06.524Z,3.73
2019-05-25T14:34:36.444Z,3.87
2019-05-25T14:37:06.371Z,3.60
2019-05-25T14:39:36.233Z,3.80
2019-05-25T14:42:06.186Z,3.40
2019-05-25T14:44:36.112Z,3.80
2019-05-25T14:47:06.032Z,3.90
2019-05-25T14:49:35.982Z,3.63
2019-05-25T14:52:05.869Z,3.87
2019-05-25T14:54:35.795Z,3.70
2019-05-25T14:57:05.652Z,3.30
2019-05-25T14:59:35.570Z,3.43
2019-05-25T15:02:05.584Z,3.57
2019-05-25T15:04:35.489Z,3.93
2019-05-25T15:07:05.568Z,3.20
2019-05-25T15:09:35.750Z,3.27
2019-05-25T15:12:05.809Z,3.20
2019-05-25T15:14:35.769Z,3.23
2019-05-25T15:17:05.779Z,2.90
2019-05-25T15:19:36.694Z,3.40
2019-05-25T15:22:06.672Z,3.47
2019-05-25T15:24:36.580Z,3.13
2019-05-25T15:27:06.439Z,3.57
2019-05-25T15:29:36.329Z,3.77
2019-05-25T15:32:19.603Z,2.60
2019-05-25T15:34:38.115Z,2.93
2019-05-25T15:37:07.983Z,3.00
2019-05-25T15:39:38.096Z,2.60
2019-05-25T15:42:08.185Z,2.37
2019-05-25T15:44:38.029Z,2.70
2019-05-25T15:47:08.062Z,2.40
2019-05-25T15:49:39.261Z,3.07
2019-05-25T15:52:09.195Z,2.80
2019-05-25T15:54:39.106Z,3.00
2019-05-25T15:57:09.084Z,3.37
2019-05-25T15:59:38.937Z,4.30
2019-05-25T16:02:08.985Z,4.23
2019-05-25T16:04:38.891Z,5.90
2019-05-25T16:07:08.828Z,5.67
2019-05-25T16:09:38.826Z,5.17
2019-05-25T16:12:08.744Z,8.40
2019-05-25T16:14:38.672Z,5.23
2019-05-25T16:17:08.520Z,5.20
2019-05-25T16:19:38.443Z,4.80
2019-05-25T16:22:08.290Z,6.40
2019-05-25T16:24:38.240Z,9.37
2019-05-25T16:27:08.087Z,6.63
2019-05-25T16:29:37.932Z,5.17
2019-05-25T16:32:07.812Z,5.00
2019-05-25T16:34:37.747Z,5.40
2019-05-25T16:37:07.978Z,5.03
2019-05-25T16:39:37.994Z,5.23
2019-05-25T16:42:07.941Z,4.93
2019-05-25T16:44:37.798Z,4.93
2019-05-25T16:47:07.732Z,5.37
2019-05-25T16:49:37.689Z,5.30
2019-05-25T16:52:07.604Z,4.87
2019-05-25T16:54:37.545Z,4.60
2019-05-25T16:57:07.383Z,4.87
2019-05-25T16:59:37.496Z,4.23
2019-05-25T17:02:07.345Z,5.33
2019-05-25T17:04:37.291Z,4.83
2019-05-25T17:07:07.266Z,4.67
2019-05-25T17:09:37.192Z,4.80
2019-05-25T17:12:07.065Z,5.13
2019-05-25T17:14:36.984Z,4.30
2019-05-25T17:17:07.143Z,4.73
2019-05-25T17:19:37.112Z,5.17
2019-05-25T17:22:07.049Z,4.73
2019-05-25T17:24:36.899Z,4.57
2019-05-25T17:27:06.759Z,4.30
2019-05-25T17:29:36.633Z,5.00
2019-05-25T17:32:06.550Z,4.90
2019-05-25T17:34:36.508Z,5.10
2019-05-25T17:37:06.427Z,4.67
2019-05-25T17:39:36.449Z,4.83
2019-05-25T17:42:06.465Z,4.87
2019-05-25T17:44:36.447Z,6.40
2019-05-25T17:47:06.442Z,4.90
2019-05-25T17:49:36.442Z,4.90
2019-05-25T17:52:06.680Z,4.43
2019-05-25T17:54:36.663Z,5.87
2019-05-25T17:57:06.737Z,5.17
2019-05-25T17:59:36.726Z,5.67
2019-05-25T18:02:06.688Z,5.87
2019-05-25T18:04:36.743Z,6.43
2019-05-25T18:07:06.757Z,5.10
2019-05-25T18:09:36.677Z,6.07
2019-05-25T18:12:07.782Z,5.10
2019-05-25T18:14:37.841Z,5.47
2019-05-25T18:17:07.777Z,4.87
2019-05-25T18:19:37.806Z,6.87
2019-05-25T18:22:08.010Z,5.77
2019-05-25T18:24:38.214Z,6.30
2019-05-25T18:27:08.163Z,6.70
2019-05-25T18:29:38.082Z,6.10
2019-05-25T18:32:08.011Z,6.17
2019-05-25T18:34:37.934Z,6.10
2019-05-25T18:37:07.880Z,5.73
2019-05-25T18:39:37.803Z,5.87
2019-05-25T18:42:07.648Z,6.50
2019-05-25T18:44:37.525Z,5.93
2019-05-25T18:47:08.439Z,6.60
2019-05-25T18:49:38.296Z,7.13
2019-05-25T18:52:08.411Z,6.57
2019-05-25T18:54:38.310Z,6.40
2019-05-25T18:57:09.562Z,5.67
2019-05-25T18:59:39.651Z,5.67
2019-05-25T19:02:09.667Z,6.00
2019-05-25T19:04:50.183Z,5.80
2019-05-25T19:07:14.180Z,5.87
2019-05-25T19:09:44.103Z,6.47
2019-05-25T19:12:14.135Z,6.03
2019-05-25T19:14:44.147Z,6.43
2019-05-25T19:17:14.100Z,6.30
2019-05-25T19:19:44.012Z,7.17
2019-05-25T19:22:13.959Z,7.63
2019-05-25T19:24:44.065Z,8.37
2019-05-25T19:27:13.912Z,8.30
2019-05-25T19:29:43.896Z,7.67
2019-05-25T19:32:13.765Z,7.77
2019-05-25T19:34:58.599Z,7.30
2019-05-25T19:37:19.136Z,7.03
2019-05-25T19:39:47.163Z,6.70
2019-05-25T19:42:17.190Z,7.30
2019-05-25T19:44:47.109Z,6.63
2019-05-25T19:47:17.182Z,7.07
2019-05-25T19:49:47.110Z,6.93
2019-05-25T19:52:17.082Z,6.67
2019-05-25T19:54:46.996Z,6.63
2019-05-25T19:57:16.930Z,6.63
2019-05-25T19:59:47.008Z,6.70
2019-05-25T20:02:16.990Z,6.30
2019-05-25T20:04:46.848Z,6.87
2019-05-25T20:07:16.742Z,6.10
2019-05-25T20:09:46.633Z,5.80
2019-05-25T20:12:17.511Z,5.73
2019-05-25T20:14:47.393Z,6.40
2019-05-25T20:17:17.555Z,6.27
2019-05-25T20:19:47.431Z,5.80
2019-05-25T20:22:17.339Z,6.33
2019-05-25T20:24:47.286Z,6.30
2019-05-25T20:27:17.240Z,6.07
2019-05-25T20:29:47.172Z,5.87
2019-05-25T20:32:19.064Z,6.27
2019-05-25T20:34:49.041Z,6.40
2019-05-25T20:37:19.031Z,6.30
2019-05-25T20:39:48.956Z,6.07
2019-05-25T20:42:18.889Z,6.17
2019-05-25T20:44:49.848Z,6.57
2019-05-25T20:47:21.326Z,6.37
2019-05-25T20:49:51.239Z,6.57
2019-05-25T20:52:21.111Z,6.40
2019-05-25T20:54:51.064Z,6.43
2019-05-25T20:57:20.997Z,6.60
2019-05-25T20:59:51.024Z,7.30
2019-05-25T21:02:21.026Z,7.13
2019-05-25T21:04:52.515Z,6.63
2019-05-25T21:07:23.941Z,7.67
2019-05-25T21:09:53.862Z,7.67
2019-05-25T21:12:23.805Z,7.10
2019-05-25T21:14:53.657Z,6.60
2019-05-25T21:17:23.619Z,6.37
2019-05-25T21:19:53.641Z,6.40
2019-05-25T21:22:23.567Z,6.23
2019-05-25T21:24:53.497Z,6.90
2019-05-25T21:27:23.408Z,6.30
2019-05-25T21:29:53.274Z,6.53
2019-05-25T21:32:23.195Z,6.20
2019-05-25T21:34:53.234Z,6.97
2019-05-25T21:37:23.157Z,6.83
2019-05-25T21:39:53.129Z,6.77
2019-05-25T21:42:22.975Z,7.00
2019-05-25T21:44:52.935Z,7.07
2019-05-25T21:47:22.794Z,6.60
2019-05-25T21:49:52.931Z,6.77
2019-05-25T21:52:22.855Z,6.80
2019-05-25T21:54:52.962Z,6.93
2019-05-25T21:57:22.888Z,7.37
2019-05-25T21:59:52.835Z,6.90
2019-05-25T22:02:23.043Z,6.83
2019-05-25T22:04:54.031Z,7.03
2019-05-25T22:07:23.973Z,7.30
2019-05-25T22:09:55.047Z,6.80
2019-05-25T22:12:24.901Z,7.67
2019-05-25T22:14:54.808Z,7.30
2019-05-25T22:17:24.710Z,7.60
2019-05-25T22:19:54.970Z,8.00
2019-05-25T22:22:25.971Z,7.83
2019-05-25T22:24:55.883Z,8.10
2019-05-25T22:27:25.803Z,7.40
2019-05-25T22:29:55.715Z,7.63
2019-05-25T22:32:25.630Z,7.43
2019-05-25T22:34:55.569Z,7.63
2019-05-25T22:37:25.404Z,7.67
2019-05-25T22:39:55.349Z,7.83
2019-05-25T22:42:25.207Z,8.43
2019-05-25T22:44:55.148Z,7.33
2019-05-25T22:47:25.099Z,7.63
2019-05-25T22:49:54.940Z,7.87
2019-05-25T22:52:24.821Z,7.67
2019-05-25T22:54:54.665Z,7.77
2019-05-25T22:57:24.621Z,7.23
2019-05-25T22:59:54.562Z,7.57
2019-05-25T23:02:24.413Z,7.20
2019-05-25T23:04:54.276Z,7.07
2019-05-25T23:07:24.134Z,7.00
2019-05-25T23:09:54.004Z,7.13
2019-05-25T23:12:23.915Z,6.63
2019-05-25T23:14:54.296Z,7.20
2019-05-25T23:17:28.291Z,6.80
2019-05-25T23:19:58.605Z,7.37
2019-05-25T23:22:28.544Z,6.93
2019-05-25T23:24:58.524Z,6.97
2019-05-25T23:27:28.407Z,6.53
2019-05-25T23:29:58.365Z,6.47
2019-05-25T23:32:28.203Z,7.10
2019-05-25T23:34:58.141Z,6.90
2019-05-25T23:37:29.048Z,6.93
2019-05-25T23:39:58.932Z,6.40
2019-05-25T23:42:28.864Z,6.17
2019-05-25T23:44:58.787Z,6.57
2019-05-25T23:47:28.696Z,6.73
2019-05-25T23:49:59.776Z,6.67
2019-05-25T23:52:30.933Z,6.43
2019-05-25T23:55:04.758Z,6.87
2019-05-25T23:57:32.589Z,6.93
